Terminal Aerodrome Forecast
Issued by NWS Wilmington, OH

Current Version | Previous Version | Graphics & Text | Print | Product List | Glossary On
Versions: 1 2 3 4 5 6 7 8 9 10 11 12 13 14 15 16 17 18 19 20 21 22 23 24 25 26 27 28 29 30 31
000
FTUS41 KILN 201000 AAA
TAFILN
TAF AMD
KILN 201025Z 2010/2106 17006KT P6SM SCT250
     FM201100 18008KT P6SM SCT050
     FM201500 21014G22KT P6SM BKN050
     FM202300 22012KT P6SM SCT050=

USA.gov is the U.S. government's official web portal to all federal, state and local government web resources and services.